createdAt,value
2022-10-19T00:01:41.286Z,1.40
2022-10-19T04:34:37.754Z,1.20
2022-10-19T05:49:03.245Z,1.95
2022-10-19T05:51:49.300Z,1.35
2022-10-19T05:54:28.691Z,1.10
2022-10-19T05:57:14.030Z,1.48
2022-10-19T06:00:01.017Z,1.40
2022-10-19T06:02:40.699Z,1.27
2022-10-19T06:05:25.013Z,1.40
2022-10-19T06:08:16.000Z,1.40
2022-10-19T06:10:54.137Z,1.50
2022-10-19T06:13:43.701Z,1.42
2022-10-19T06:16:34.030Z,1.20
2022-10-19T06:19:21.415Z,1.77
2022-10-19T06:22:24.946Z,1.30
2022-10-19T06:25:39.768Z,1.10
2022-10-19T06:28:26.701Z,1.38
2022-10-19T06:31:07.211Z,1.20
2022-10-19T06:33:52.580Z,1.30
2022-10-19T06:36:31.016Z,1.20
2022-10-19T06:39:34.894Z,1.45
2022-10-19T06:42:16.800Z,1.52
2022-10-19T06:44:58.851Z,1.70
2022-10-19T06:48:07.631Z,1.52
2022-10-19T06:50:59.459Z,1.60
2022-10-19T06:53:40.376Z,8.13
2022-10-19T06:56:22.867Z,7.88
2022-10-19T06:59:14.085Z,3.65
2022-10-19T07:02:03.331Z,2.72
2022-10-19T07:04:39.992Z,2.10
2022-10-19T07:07:32.797Z,3.40
2022-10-19T07:10:19.633Z,2.20
2022-10-19T07:16:04.581Z,3.58
2022-10-19T07:18:47.850Z,2.20
2022-10-19T07:21:30.103Z,1.83
2022-10-19T07:24:13.437Z,2.85
2022-10-19T07:27:05.100Z,5.50
2022-10-19T07:29:46.955Z,3.20
2022-10-19T07:35:33.098Z,2.10
2022-10-19T07:38:11.934Z,1.85
2022-10-19T07:41:05.253Z,1.98
2022-10-19T07:43:45.714Z,3.45
2022-10-19T07:46:28.895Z,2.90
2022-10-19T07:49:08.931Z,10.50
2022-10-19T07:51:51.684Z,10.18
2022-10-19T07:54:58.300Z,8.75
2022-10-19T07:57:57.993Z,3.50
2022-10-19T08:00:56.196Z,2.90
2022-10-19T08:07:10.485Z,2.40
2022-10-19T08:10:04.060Z,11.82
2022-10-19T08:13:16.861Z,5.72
2022-10-19T08:16:02.222Z,9.55
2022-10-19T08:19:06.115Z,17.08
2022-10-19T08:21:49.852Z,6.13
2022-10-19T08:24:40.943Z,6.75
2022-10-19T08:27:16.242Z,6.07
2022-10-19T08:30:02.904Z,2.85
2022-10-19T08:32:48.954Z,3.20
2022-10-19T08:38:29.401Z,3.28
2022-10-19T08:41:16.990Z,5.10
2022-10-19T08:44:18.238Z,4.70
2022-10-19T08:47:07.985Z,3.42
2022-10-19T08:49:46.359Z,3.63
2022-10-19T08:52:51.129Z,3.22
2022-10-19T08:56:12.414Z,3.80
2022-10-19T08:59:24.934Z,6.38
2022-10-19T09:02:09.238Z,18.10
2022-10-19T09:04:49.854Z,16.27
2022-10-19T09:07:38.342Z,8.52
2022-10-19T09:10:42.511Z,4.38
2022-10-19T09:13:41.619Z,4.38
2022-10-19T09:16:45.235Z,2.65
2022-10-19T09:19:37.797Z,2.72
2022-10-19T09:22:20.111Z,2.30
2022-10-19T09:25:08.726Z,2.25
2022-10-19T09:27:55.771Z,2.45
2022-10-19T09:34:11.049Z,3.40
2022-10-19T09:37:04.095Z,3.38
2022-10-19T09:39:55.627Z,2.60
2022-10-19T09:42:40.970Z,2.15
2022-10-19T09:45:50.113Z,2.30
2022-10-19T09:54:47.957Z,2.90
2022-10-19T10:01:09.643Z,3.50
2022-10-19T10:03:48.040Z,4.95
2022-10-19T10:06:50.302Z,16.98
2022-10-19T10:09:37.934Z,14.20
2022-10-19T10:12:25.414Z,7.50
2022-10-19T10:17:49.353Z,5.18
2022-10-19T10:20:35.031Z,3.50
2022-10-19T10:23:29.507Z,4.75
2022-10-19T10:26:09.353Z,4.60
2022-10-19T10:32:15.612Z,5.53
2022-10-19T10:38:18.959Z,4.05
2022-10-19T10:44:13.269Z,8.32
2022-10-19T10:47:02.659Z,7.03
2022-10-19T10:49:49.159Z,3.63
2022-10-19T11:02:09.214Z,4.68
2022-10-19T11:04:52.275Z,3.50
2022-10-19T11:07:43.352Z,4.10
2022-10-19T11:10:31.019Z,5.10
2022-10-19T11:13:24.411Z,5.47
2022-10-19T11:16:17.688Z,6.63
2022-10-19T11:22:20.338Z,7.53
2022-10-19T11:25:27.319Z,9.30
2022-10-19T11:28:24.349Z,11.13
2022-10-19T11:31:26.383Z,11.80
2022-10-19T11:34:18.651Z,11.27
2022-10-19T11:37:06.850Z,10.18
2022-10-19T11:40:06.031Z,10.05
2022-10-19T11:42:57.128Z,9.82
2022-10-19T11:45:54.983Z,8.88
2022-10-19T11:49:10.489Z,9.65
2022-10-19T11:52:05.544Z,15.40
2022-10-19T11:55:10.853Z,15.23
2022-10-19T11:58:03.040Z,22.70
2022-10-19T12:01:12.002Z,20.75
2022-10-19T12:04:39.108Z,16.70
2022-10-19T12:08:09.479Z,19.77
2022-10-19T12:19:15.955Z,23.50
2022-10-19T12:22:21.889Z,18.90
2022-10-19T12:25:14.414Z,17.90
2022-10-19T12:31:01.529Z,18.27
2022-10-19T12:33:50.140Z,18.63
2022-10-19T12:37:02.751Z,19.05
2022-10-19T12:43:09.127Z,18.55
2022-10-19T12:46:28.762Z,18.45
2022-10-19T12:49:45.972Z,15.88
2022-10-19T12:53:09.698Z,15.93
2022-10-19T12:56:02.563Z,14.93
2022-10-19T12:58:55.010Z,13.38
2022-10-19T13:01:47.868Z,13.18
2022-10-19T13:11:19.355Z,12.85
2022-10-19T13:14:10.199Z,13.70
2022-10-19T13:17:01.584Z,11.60
2022-10-19T13:22:48.635Z,13.68
2022-10-19T13:25:32.001Z,13.43
2022-10-19T13:28:59.812Z,12.50
2022-10-19T13:31:49.991Z,12.30
2022-10-19T13:37:38.886Z,9.80
2022-10-19T13:40:38.610Z,9.73
2022-10-19T13:43:26.251Z,10.10
2022-10-19T13:46:18.645Z,9.43
2022-10-19T13:49:39.715Z,9.95
2022-10-19T13:53:14.890Z,8.68
2022-10-19T13:56:05.460Z,9.13
2022-10-19T13:59:35.535Z,9.65
2022-10-19T14:03:02.939Z,9.65
2022-10-19T14:06:28.368Z,10.38
2022-10-19T14:09:28.396Z,8.88
2022-10-19T14:12:16.880Z,9.32
2022-10-19T14:14:55.469Z,7.22
2022-10-19T14:17:38.196Z,7.43
2022-10-19T14:20:44.979Z,6.18
2022-10-19T14:23:37.906Z,6.90
2022-10-19T14:26:32.758Z,7.63
2022-10-19T14:29:13.230Z,6.93
2022-10-19T14:32:09.188Z,8.35
2022-10-19T14:35:01.312Z,7.90
2022-10-19T14:37:49.512Z,7.57
2022-10-19T14:43:29.489Z,8.15
2022-10-19T14:46:25.871Z,7.80
2022-10-19T14:49:10.537Z,6.95
2022-10-19T14:52:03.719Z,7.03
2022-10-19T14:54:49.254Z,6.65
2022-10-19T14:57:45.876Z,6.28
2022-10-19T15:03:18.586Z,5.63
2022-10-19T15:05:58.590Z,5.32
2022-10-19T15:08:58.650Z,6.25
2022-10-19T15:14:41.961Z,6.90
2022-10-19T15:17:43.431Z,6.67
2022-10-19T15:21:11.748Z,6.82
2022-10-19T15:23:52.339Z,6.88
2022-10-19T15:26:44.698Z,6.75
2022-10-19T15:29:38.209Z,6.45
2022-10-19T15:32:34.326Z,7.20
2022-10-19T15:35:28.700Z,7.32
2022-10-19T15:40:54.130Z,6.32
2022-10-19T15:44:00.571Z,7.00
2022-10-19T15:46:42.828Z,6.93
2022-10-19T15:50:10.003Z,6.75
2022-10-19T15:52:50.762Z,6.78
2022-10-19T15:55:26.680Z,5.80
2022-10-19T15:58:22.244Z,6.53
2022-10-19T16:01:08.654Z,5.65
2022-10-19T16:04:04.654Z,6.22
2022-10-19T16:06:51.074Z,5.75
2022-10-19T16:09:41.583Z,5.55
2022-10-19T16:12:30.876Z,5.38
2022-10-19T16:15:21.143Z,5.60
2022-10-19T16:18:03.179Z,5.90
2022-10-19T16:21:13.062Z,5.80
2022-10-19T16:26:49.466Z,5.05
2022-10-19T16:29:32.353Z,5.55
2022-10-19T16:32:18.311Z,4.68
2022-10-19T16:34:58.144Z,4.43
2022-10-19T16:37:49.086Z,4.77
2022-10-19T16:40:42.718Z,4.50
2022-10-19T16:43:27.038Z,4.40
2022-10-19T16:46:12.166Z,3.83
2022-10-19T16:48:58.164Z,3.72
2022-10-19T16:51:46.732Z,3.67
2022-10-19T16:54:40.185Z,3.33
2022-10-19T17:00:17.705Z,4.20
2022-10-19T17:03:09.086Z,3.22
2022-10-19T17:05:53.415Z,3.45
2022-10-19T17:12:20.701Z,3.83
2022-10-19T17:15:42.459Z,3.00
2022-10-19T17:18:21.224Z,3.30
2022-10-19T17:24:03.587Z,2.90
2022-10-19T17:27:05.898Z,2.90
2022-10-19T17:30:10.860Z,2.85
2022-10-19T17:32:48.962Z,2.65
2022-10-19T17:35:26.327Z,2.90
2022-10-19T17:38:21.574Z,2.63
2022-10-19T17:40:59.156Z,3.15
2022-10-19T17:43:45.498Z,2.92
2022-10-19T17:46:23.119Z,2.85
2022-10-19T17:49:06.594Z,2.55
2022-10-19T17:52:20.847Z,2.55
2022-10-19T17:55:18.737Z,2.70
2022-10-19T17:58:01.959Z,2.78
2022-10-19T18:00:39.673Z,2.33
2022-10-19T18:06:13.362Z,2.47
2022-10-19T18:08:55.160Z,2.15
2022-10-19T18:11:37.814Z,2.47
2022-10-19T18:17:10.178Z,2.85
2022-10-19T18:19:56.537Z,2.40
2022-10-19T18:22:51.032Z,2.35
2022-10-19T18:25:49.325Z,3.60
2022-10-19T18:28:38.309Z,3.30
2022-10-19T18:31:19.267Z,2.65
2022-10-19T18:37:17.595Z,3.03
2022-10-19T18:40:02.600Z,2.63
2022-10-19T18:42:46.246Z,2.95
2022-10-19T18:48:37.792Z,3.10
2022-10-19T18:54:28.201Z,2.65
2022-10-19T18:57:22.169Z,2.90
2022-10-19T19:00:01.553Z,3.05
2022-10-19T19:02:47.360Z,3.17
2022-10-19T19:05:33.627Z,3.90
2022-10-19T19:08:22.113Z,4.13
2022-10-19T19:10:59.362Z,4.72
2022-10-19T19:13:52.639Z,4.20
2022-10-19T19:16:43.311Z,4.28
2022-10-19T19:19:41.629Z,3.25
2022-10-19T19:22:28.003Z,3.88
2022-10-19T19:27:55.953Z,3.35
2022-10-19T19:30:48.087Z,3.00
2022-10-19T19:33:31.408Z,3.13
2022-10-19T19:36:20.567Z,3.08
2022-10-19T19:39:08.349Z,2.90
2022-10-19T19:41:45.948Z,2.60
2022-10-19T19:44:24.195Z,2.70
2022-10-19T19:47:10.902Z,2.80
2022-10-19T19:49:55.789Z,2.85
2022-10-19T19:52:32.853Z,2.97
2022-10-19T19:55:29.066Z,3.03
2022-10-19T19:58:15.408Z,3.03
2022-10-19T20:01:04.015Z,2.55
2022-10-19T20:03:53.522Z,2.90
2022-10-19T20:06:42.510Z,2.65
2022-10-19T20:09:21.826Z,2.85
2022-10-19T20:14:42.662Z,3.08
2022-10-19T20:23:33.165Z,2.88
2022-10-19T20:26:15.330Z,3.50
2022-10-19T20:29:04.733Z,3.40
2022-10-19T20:31:49.439Z,3.58
2022-10-19T20:34:30.677Z,3.13
2022-10-19T20:37:14.706Z,3.33
2022-10-19T20:40:23.484Z,2.80
2022-10-19T20:43:03.613Z,2.90
2022-10-19T20:45:47.746Z,2.63
2022-10-19T20:48:31.006Z,3.03
2022-10-19T20:51:22.450Z,3.00
2022-10-19T20:54:19.096Z,2.92
2022-10-19T20:57:11.011Z,3.33
2022-10-19T21:00:04.692Z,3.35
2022-10-19T21:02:45.338Z,3.67
2022-10-19T21:05:22.408Z,3.03
2022-10-19T21:07:59.361Z,4.60
2022-10-19T21:10:38.589Z,2.97
2022-10-19T21:13:17.709Z,3.65
2022-10-19T21:16:10.535Z,4.25
2022-10-19T21:18:57.737Z,4.15
2022-10-19T21:21:35.813Z,4.15
2022-10-19T21:30:28.114Z,4.07
2022-10-19T21:33:05.515Z,4.13
2022-10-19T21:35:45.551Z,3.97
2022-10-19T21:38:30.594Z,4.80
2022-10-19T21:41:25.320Z,4.95
2022-10-19T21:44:21.126Z,5.40
2022-10-19T21:47:07.273Z,5.65
2022-10-19T21:49:46.065Z,5.82
2022-10-19T21:52:25.205Z,5.68
2022-10-19T21:55:10.349Z,5.38
2022-10-19T21:57:49.646Z,5.45
2022-10-19T22:01:26.410Z,6.53
2022-10-19T22:04:24.188Z,6.57
2022-10-19T22:10:00.059Z,6.45
2022-10-19T22:12:36.866Z,6.97
2022-10-19T22:15:16.213Z,7.18
2022-10-19T22:18:05.199Z,7.47
2022-10-19T22:20:47.282Z,7.47
2022-10-19T22:23:27.113Z,6.40
2022-10-19T22:26:13.020Z,6.90
2022-10-19T22:28:51.622Z,7.03
2022-10-19T22:31:38.064Z,6.90
2022-10-19T22:34:26.803Z,6.47
2022-10-19T22:37:18.619Z,6.78
2022-10-19T22:40:08.141Z,6.68
2022-10-19T22:48:49.108Z,7.70
2022-10-19T22:51:34.018Z,6.15
2022-10-19T22:54:13.641Z,6.05
2022-10-19T22:56:52.316Z,6.85
2022-10-19T22:59:32.944Z,7.38
2022-10-19T23:02:13.836Z,6.32
2022-10-19T23:04:54.283Z,7.03
2022-10-19T23:07:40.389Z,7.90
2022-10-19T23:10:27.620Z,9.82
2022-10-19T23:13:12.657Z,9.32
2022-10-19T23:15:58.984Z,9.98
2022-10-19T23:18:40.276Z,8.30
2022-10-19T23:21:22.934Z,8.68
2022-10-19T23:24:24.596Z,8.90
2022-10-19T23:27:05.324Z,10.05
2022-10-19T23:29:51.717Z,9.00
2022-10-19T23:32:31.048Z,7.90
2022-10-19T23:38:10.904Z,9.57
2022-10-19T23:40:58.529Z,8.13
2022-10-19T23:43:55.904Z,8.55
2022-10-19T23:46:39.691Z,7.35
2022-10-19T23:49:24.845Z,8.63
2022-10-19T23:52:28.761Z,5.65
2022-10-19T23:55:13.557Z,5.88
2022-10-19T23:58:17.222Z,7.10
